sensor_id;sensor_type;location;lat;lon;timestamp;pressure;altitude;pressure_sealevel;temperature;humidity
31337;BME280;22846;42.654;23.314;2023-04-07T00:01:22;94191.00;;;23.53;52.17
31337;BME280;22846;42.654;23.314;2023-04-07T00:03:48;94192.66;;;23.51;52.00
31337;BME280;22846;42.654;23.314;2023-04-07T00:06:13;94186.88;;;23.49;52.18
31337;BME280;22846;42.654;23.314;2023-04-07T00:08:38;94178.06;;;23.45;52.26
31337;BME280;22846;42.654;23.314;2023-04-07T00:11:04;94178.69;;;23.49;52.40
31337;BME280;22846;42.654;23.314;2023-04-07T00:13:30;94184.28;;;23.45;52.56
31337;BME280;22846;42.654;23.314;2023-04-07T00:15:55;94185.94;;;23.43;52.33
31337;BME280;22846;42.654;23.314;2023-04-07T00:18:21;94179.69;;;23.42;52.37
31337;BME280;22846;42.654;23.314;2023-04-07T00:20:46;94184.72;;;23.44;52.18
31337;BME280;22846;42.654;23.314;2023-04-07T00:23:12;94181.34;;;23.40;52.26
31337;BME280;22846;42.654;23.314;2023-04-07T00:25:37;94182.13;;;23.40;52.45
31337;BME280;22846;42.654;23.314;2023-04-07T00:28:03;94173.16;;;23.40;52.73
31337;BME280;22846;42.654;23.314;2023-04-07T00:30:28;94186.78;;;23.40;52.13
31337;BME280;22846;42.654;23.314;2023-04-07T00:32:53;94175.25;;;23.36;52.49
31337;BME280;22846;42.654;23.314;2023-04-07T00:35:19;94173.84;;;23.31;52.45
31337;BME280;22846;42.654;23.314;2023-04-07T00:37:45;94182.25;;;23.37;52.40
31337;BME280;22846;42.654;23.314;2023-04-07T00:40:10;94178.41;;;23.34;52.18
31337;BME280;22846;42.654;23.314;2023-04-07T00:42:36;94141.09;;;23.10;52.27
31337;BME280;22846;42.654;23.314;2023-04-07T00:45:01;94180.06;;;23.32;52.16
31337;BME280;22846;42.654;23.314;2023-04-07T00:47:27;94186.59;;;23.34;52.54
31337;BME280;22846;42.654;23.314;2023-04-07T00:49:52;94185.50;;;23.32;52.45
31337;BME280;22846;42.654;23.314;2023-04-07T00:52:18;94183.56;;;23.32;52.41
31337;BME280;22846;42.654;23.314;2023-04-07T00:54:44;94174.28;;;23.30;52.22
31337;BME280;22846;42.654;23.314;2023-04-07T00:57:11;94170.94;;;23.26;52.24
31337;BME280;22846;42.654;23.314;2023-04-07T00:59:36;94177.00;;;23.30;52.56
31337;BME280;22846;42.654;23.314;2023-04-07T01:02:41;94168.88;;;23.17;52.39
31337;BME280;22846;42.654;23.314;2023-04-07T01:08:25;94177.91;;;23.27;52.58
31337;BME280;22846;42.654;23.314;2023-04-07T01:13:49;94170.94;;;23.26;52.55
31337;BME280;22846;42.654;23.314;2023-04-07T01:16:30;94167.53;;;23.22;52.63
31337;BME280;22846;42.654;23.314;2023-04-07T01:19:03;94172.25;;;23.21;52.21
31337;BME280;22846;42.654;23.314;2023-04-07T01:21:34;94164.53;;;23.20;52.57
31337;BME280;22846;42.654;23.314;2023-04-07T01:24:26;94170.28;;;23.22;52.27
31337;BME280;22846;42.654;23.314;2023-04-07T01:27:08;94166.00;;;23.21;52.14
31337;BME280;22846;42.654;23.314;2023-04-07T01:29:41;94169.97;;;23.20;52.38
31337;BME280;22846;42.654;23.314;2023-04-07T01:32:12;94165.72;;;23.19;52.45
31337;BME280;22846;42.654;23.314;2023-04-07T01:34:39;94149.56;;;23.12;52.45
31337;BME280;22846;42.654;23.314;2023-04-07T01:37:06;94137.38;;;23.04;52.74
31337;BME280;22846;42.654;23.314;2023-04-07T01:39:32;94155.81;;;23.12;52.52
31337;BME280;22846;42.654;23.314;2023-04-07T01:41:58;94143.38;;;23.11;52.25
31337;BME280;22846;42.654;23.314;2023-04-07T01:44:27;94155.03;;;23.12;52.59
31337;BME280;22846;42.654;23.314;2023-04-07T01:46:54;94157.66;;;23.15;52.22
31337;BME280;22846;42.654;23.314;2023-04-07T01:49:21;94138.66;;;23.12;52.08
31337;BME280;22846;42.654;23.314;2023-04-07T01:51:47;94140.97;;;23.13;52.16
31337;BME280;22846;42.654;23.314;2023-04-07T01:54:15;94148.38;;;23.13;52.32
31337;BME280;22846;42.654;23.314;2023-04-07T01:56:41;94140.00;;;23.08;52.33
31337;BME280;22846;42.654;23.314;2023-04-07T01:59:07;94142.63;;;23.11;52.09
31337;BME280;22846;42.654;23.314;2023-04-07T02:01:32;94133.47;;;23.05;52.15
31337;BME280;22846;42.654;23.314;2023-04-07T02:04:06;94131.19;;;23.04;52.20
31337;BME280;22846;42.654;23.314;2023-04-07T02:06:41;94140.44;;;23.06;52.32
31337;BME280;22846;42.654;23.314;2023-04-07T02:09:10;94148.50;;;23.09;52.34
31337;BME280;22846;42.654;23.314;2023-04-07T02:11:38;94149.81;;;23.05;52.37
31337;BME280;22846;42.654;23.314;2023-04-07T02:14:05;94146.34;;;23.05;52.28
31337;BME280;22846;42.654;23.314;2023-04-07T02:16:33;94148.16;;;23.08;52.07
31337;BME280;22846;42.654;23.314;2023-04-07T02:18:59;94142.84;;;23.04;52.19
31337;BME280;22846;42.654;23.314;2023-04-07T02:21:27;94137.38;;;23.04;52.16
31337;BME280;22846;42.654;23.314;2023-04-07T02:23:54;94135.88;;;23.03;52.15
31337;BME280;22846;42.654;23.314;2023-04-07T02:26:20;94139.78;;;23.02;52.43
31337;BME280;22846;42.654;23.314;2023-04-07T02:28:45;94140.88;;;23.05;51.91
31337;BME280;22846;42.654;23.314;2023-04-07T02:31:11;94120.63;;;22.93;52.12
31337;BME280;22846;42.654;23.314;2023-04-07T02:33:38;94143.63;;;23.05;52.14
31337;BME280;22846;42.654;23.314;2023-04-07T02:36:03;94147.97;;;23.02;52.25
31337;BME280;22846;42.654;23.314;2023-04-07T02:38:29;94146.75;;;23.03;52.35
31337;BME280;22846;42.654;23.314;2023-04-07T02:40:54;94148.28;;;23.04;52.21
31337;BME280;22846;42.654;23.314;2023-04-07T02:43:20;94146.44;;;23.01;52.22
31337;BME280;22846;42.654;23.314;2023-04-07T02:45:45;94144.91;;;23.00;51.98
31337;BME280;22846;42.654;23.314;2023-04-07T02:48:11;94147.63;;;23.00;52.13
31337;BME280;22846;42.654;23.314;2023-04-07T02:50:36;94143.03;;;22.97;51.89
31337;BME280;22846;42.654;23.314;2023-04-07T02:53:02;94150.69;;;23.02;52.10
31337;BME280;22846;42.654;23.314;2023-04-07T02:55:28;94155.81;;;23.00;52.39
31337;BME280;22846;42.654;23.314;2023-04-07T02:57:54;94132.06;;;22.88;52.21
31337;BME280;22846;42.654;23.314;2023-04-07T03:00:19;94160.47;;;23.00;52.15
31337;BME280;22846;42.654;23.314;2023-04-07T03:02:45;94157.00;;;22.99;52.26
31337;BME280;22846;42.654;23.314;2023-04-07T03:05:10;94169.44;;;23.00;52.03
31337;BME280;22846;42.654;23.314;2023-04-07T03:07:36;94160.38;;;23.03;51.91
31337;BME280;22846;42.654;23.314;2023-04-07T03:10:01;94171.28;;;23.15;51.46
31337;BME280;22846;42.654;23.314;2023-04-07T03:12:26;94166.34;;;23.23;51.87
31337;BME280;22846;42.654;23.314;2023-04-07T03:14:52;94158.69;;;23.30;50.83
31337;BME280;22846;42.654;23.314;2023-04-07T03:17:17;94164.56;;;23.41;51.08
31337;BME280;22846;42.654;23.314;2023-04-07T03:19:43;94168.56;;;23.49;50.67
31337;BME280;22846;42.654;23.314;2023-04-07T03:22:08;94174.22;;;23.55;50.39
31337;BME280;22846;42.654;23.314;2023-04-07T03:24:33;94163.94;;;23.59;50.55
31337;BME280;22846;42.654;23.314;2023-04-07T03:26:59;94153.34;;;23.61;50.03
31337;BME280;22846;42.654;23.314;2023-04-07T03:29:26;94143.00;;;23.56;50.01
31337;BME280;22846;42.654;23.314;2023-04-07T03:31:51;94161.16;;;23.71;49.76
31337;BME280;22846;42.654;23.314;2023-04-07T03:34:17;94155.16;;;23.76;49.45
31337;BME280;22846;42.654;23.314;2023-04-07T03:36:42;94124.09;;;23.61;48.95
31337;BME280;22846;42.654;23.314;2023-04-07T03:39:07;94158.38;;;23.84;49.44
31337;BME280;22846;42.654;23.314;2023-04-07T03:41:33;94157.84;;;23.89;49.33
31337;BME280;22846;42.654;23.314;2023-04-07T03:43:58;94156.50;;;23.93;48.94
31337;BME280;22846;42.654;23.314;2023-04-07T03:46:24;94150.59;;;23.94;49.28
31337;BME280;22846;42.654;23.314;2023-04-07T03:48:51;94145.44;;;23.96;48.73
31337;BME280;22846;42.654;23.314;2023-04-07T03:51:17;94142.84;;;23.93;49.16
31337;BME280;22846;42.654;23.314;2023-04-07T03:53:42;94163.41;;;24.06;48.75
31337;BME280;22846;42.654;23.314;2023-04-07T03:56:08;94157.03;;;24.09;48.60
31337;BME280;22846;42.654;23.314;2023-04-07T03:58:33;94158.88;;;24.12;48.75
31337;BME280;22846;42.654;23.314;2023-04-07T04:00:59;94153.09;;;24.10;48.42
31337;BME280;22846;42.654;23.314;2023-04-07T04:03:24;94162.25;;;24.16;48.66
31337;BME280;22846;42.654;23.314;2023-04-07T04:05:49;94158.94;;;24.21;48.92
31337;BME280;22846;42.654;23.314;2023-04-07T04:08:15;94163.25;;;24.31;48.86
31337;BME280;22846;42.654;23.314;2023-04-07T04:10:40;94168.56;;;24.35;48.80
31337;BME280;22846;42.654;23.314;2023-04-07T04:13:05;94165.38;;;24.36;48.45
31337;BME280;22846;42.654;23.314;2023-04-07T04:15:32;94175.72;;;24.41;48.27
31337;BME280;22846;42.654;23.314;2023-04-07T04:17:57;94179.13;;;24.45;48.54
31337;BME280;22846;42.654;23.314;2023-04-07T04:20:23;94175.94;;;24.47;48.26
31337;BME280;22846;42.654;23.314;2023-04-07T04:22:48;94168.84;;;24.49;48.18
31337;BME280;22846;42.654;23.314;2023-04-07T04:25:15;94171.09;;;24.51;48.19
31337;BME280;22846;42.654;23.314;2023-04-07T04:27:41;94177.19;;;24.55;48.46
31337;BME280;22846;42.654;23.314;2023-04-07T04:30:07;94164.44;;;24.52;48.26
31337;BME280;22846;42.654;23.314;2023-04-07T04:32:32;94157.72;;;24.44;48.09
31337;BME280;22846;42.654;23.314;2023-04-07T04:34:58;94187.09;;;24.61;48.28
31337;BME280;22846;42.654;23.314;2023-04-07T04:37:24;94156.38;;;24.48;48.01
31337;BME280;22846;42.654;23.314;2023-04-07T04:39:50;94185.41;;;24.64;48.26
31337;BME280;22846;42.654;23.314;2023-04-07T04:42:15;94181.63;;;24.61;47.98
31337;BME280;22846;42.654;23.314;2023-04-07T04:44:41;94181.28;;;24.59;48.63
31337;BME280;22846;42.654;23.314;2023-04-07T04:47:06;94182.34;;;24.53;48.36
31337;BME280;22846;42.654;23.314;2023-04-07T04:49:31;94159.31;;;24.32;48.95
31337;BME280;22846;42.654;23.314;2023-04-07T04:51:57;94192.09;;;24.41;49.11
31337;BME280;22846;42.654;23.314;2023-04-07T04:54:22;94171.06;;;24.20;49.71
31337;BME280;22846;42.654;23.314;2023-04-07T04:56:48;94192.31;;;24.25;50.19
31337;BME280;22846;42.654;23.314;2023-04-07T04:59:13;94203.50;;;24.18;50.17
31337;BME280;22846;42.654;23.314;2023-04-07T05:01:38;94195.25;;;24.09;49.92
31337;BME280;22846;42.654;23.314;2023-04-07T05:04:04;94202.50;;;24.03;50.28
31337;BME280;22846;42.654;23.314;2023-04-07T05:06:29;94197.94;;;24.00;50.52
31337;BME280;22846;42.654;23.314;2023-04-07T05:08:55;94197.13;;;23.91;50.36
31337;BME280;22846;42.654;23.314;2023-04-07T05:11:20;94199.97;;;23.88;50.60
31337;BME280;22846;42.654;23.314;2023-04-07T05:13:46;94197.50;;;23.81;50.90
31337;BME280;22846;42.654;23.314;2023-04-07T05:16:12;94221.16;;;23.84;50.81
31337;BME280;22846;42.654;23.314;2023-04-07T05:18:37;94207.97;;;23.70;50.87
31337;BME280;22846;42.654;23.314;2023-04-07T05:21:03;94208.97;;;23.76;51.03
31337;BME280;22846;42.654;23.314;2023-04-07T05:23:28;94218.69;;;23.77;50.76
31337;BME280;22846;42.654;23.314;2023-04-07T05:25:53;94218.78;;;23.73;50.85
31337;BME280;22846;42.654;23.314;2023-04-07T05:28:19;94227.09;;;23.70;51.41
31337;BME280;22846;42.654;23.314;2023-04-07T05:30:44;94224.69;;;23.72;51.26
31337;BME280;22846;42.654;23.314;2023-04-07T05:33:10;94186.56;;;23.47;51.13
31337;BME280;22846;42.654;23.314;2023-04-07T05:35:35;94225.22;;;23.67;51.60
31337;BME280;22846;42.654;23.314;2023-04-07T05:38:01;94227.19;;;23.66;51.10
31337;BME280;22846;42.654;23.314;2023-04-07T05:40:27;94221.28;;;23.68;51.63
31337;BME280;22846;42.654;23.314;2023-04-07T05:42:52;94222.41;;;23.58;51.42
31337;BME280;22846;42.654;23.314;2023-04-07T05:45:18;94217.53;;;23.53;51.27
31337;BME280;22846;42.654;23.314;2023-04-07T05:47:43;94224.28;;;23.61;51.43
31337;BME280;22846;42.654;23.314;2023-04-07T05:50:11;94234.28;;;23.64;51.38
31337;BME280;22846;42.654;23.314;2023-04-07T05:52:38;94227.31;;;23.63;50.86
31337;BME280;22846;42.654;23.314;2023-04-07T05:55:03;94233.22;;;23.61;50.92
31337;BME280;22846;42.654;23.314;2023-04-07T05:57:30;94228.53;;;23.62;50.49
31337;BME280;22846;42.654;23.314;2023-04-07T05:59:56;94232.34;;;23.64;50.14
31337;BME280;22846;42.654;23.314;2023-04-07T06:02:22;94222.63;;;23.63;51.24
31337;BME280;22846;42.654;23.314;2023-04-07T06:04:47;94224.28;;;23.61;50.99
31337;BME280;22846;42.654;23.314;2023-04-07T06:07:13;94227.94;;;23.67;51.02
31337;BME280;22846;42.654;23.314;2023-04-07T06:09:38;94211.00;;;23.50;51.37
31337;BME280;22846;42.654;23.314;2023-04-07T06:12:03;94232.66;;;23.66;51.36
31337;BME280;22846;42.654;23.314;2023-04-07T06:14:31;94226.00;;;23.67;50.78
31337;BME280;22846;42.654;23.314;2023-04-07T06:16:56;94233.75;;;23.69;50.43
31337;BME280;22846;42.654;23.314;2023-04-07T06:19:21;94237.34;;;23.66;50.44
31337;BME280;22846;42.654;23.314;2023-04-07T06:21:47;94229.94;;;23.66;49.95
31337;BME280;22846;42.654;23.314;2023-04-07T06:24:12;94231.75;;;23.69;50.35
31337;BME280;22846;42.654;23.314;2023-04-07T06:26:39;94239.44;;;23.74;50.24
31337;BME280;22846;42.654;23.314;2023-04-07T06:29:04;94232.78;;;23.75;50.75
31337;BME280;22846;42.654;23.314;2023-04-07T06:31:30;94195.59;;;23.56;50.68
31337;BME280;22846;42.654;23.314;2023-04-07T06:33:55;94223.25;;;23.80;50.71
31337;BME280;22846;42.654;23.314;2023-04-07T06:36:21;94222.47;;;23.79;50.44
31337;BME280;22846;42.654;23.314;2023-04-07T06:38:47;94222.06;;;23.81;49.20
31337;BME280;22846;42.654;23.314;2023-04-07T06:41:13;94223.56;;;23.82;48.72
31337;BME280;22846;42.654;23.314;2023-04-07T06:43:45;94224.13;;;23.77;39.59
31337;BME280;22846;42.654;23.314;2023-04-07T06:46:10;94212.47;;;23.64;47.00
31337;BME280;22846;42.654;23.314;2023-04-07T06:48:36;94210.63;;;23.61;47.18
31337;BME280;22846;42.654;23.314;2023-04-07T06:51:01;94230.34;;;23.65;47.92
31337;BME280;22846;42.654;23.314;2023-04-07T06:53:27;94226.63;;;23.71;48.39
31337;BME280;22846;42.654;23.314;2023-04-07T06:56:05;94218.44;;;23.71;48.92
31337;BME280;22846;42.654;23.314;2023-04-07T06:58:31;94206.31;;;23.51;38.53
31337;BME280;22846;42.654;23.314;2023-04-07T07:00:56;94225.28;;;23.54;43.25
31337;BME280;22846;42.654;23.314;2023-04-07T07:03:22;94212.53;;;23.39;45.60
31337;BME280;22846;42.654;23.314;2023-04-07T07:05:47;94243.09;;;23.34;32.12
31337;BME280;22846;42.654;23.314;2023-04-07T07:08:13;94212.03;;;22.69;34.04
31337;BME280;22846;42.654;23.314;2023-04-07T07:10:38;94228.72;;;22.46;38.38
31337;BME280;22846;42.654;23.314;2023-04-07T07:13:04;94239.72;;;22.55;40.74
31337;BME280;22846;42.654;23.314;2023-04-07T07:15:29;94239.13;;;22.35;28.48
31337;BME280;22846;42.654;23.314;2023-04-07T07:17:54;94240.81;;;21.44;27.30
31337;BME280;22846;42.654;23.314;2023-04-07T07:20:20;94233.31;;;21.20;34.74
31337;BME280;22846;42.654;23.314;2023-04-07T07:22:47;94245.53;;;21.28;39.61
31337;BME280;22846;42.654;23.314;2023-04-07T07:25:13;94241.94;;;21.47;42.07
31337;BME280;22846;42.654;23.314;2023-04-07T07:27:38;94233.53;;;21.57;43.59
31337;BME280;22846;42.654;23.314;2023-04-07T07:30:04;94244.75;;;21.88;43.32
31337;BME280;22846;42.654;23.314;2023-04-07T07:32:30;94261.69;;;22.08;38.47
31337;BME280;22846;42.654;23.314;2023-04-07T07:34:55;94261.75;;;22.20;37.41
31337;BME280;22846;42.654;23.314;2023-04-07T07:37:21;94248.59;;;22.31;39.30
31337;BME280;22846;42.654;23.314;2023-04-07T07:39:46;94261.59;;;22.39;40.33
31337;BME280;22846;42.654;23.314;2023-04-07T07:42:12;94256.28;;;22.48;41.39
31337;BME280;22846;42.654;23.314;2023-04-07T07:44:37;94231.44;;;22.46;41.32
31337;BME280;22846;42.654;23.314;2023-04-07T07:47:02;94260.31;;;22.69;41.39
31337;BME280;22846;42.654;23.314;2023-04-07T07:49:28;94235.91;;;22.65;42.04
31337;BME280;22846;42.654;23.314;2023-04-07T07:51:53;94264.59;;;22.82;41.93
31337;BME280;22846;42.654;23.314;2023-04-07T07:54:19;94272.44;;;22.93;42.42
31337;BME280;22846;42.654;23.314;2023-04-07T07:56:44;94263.28;;;22.99;42.70
31337;BME280;22846;42.654;23.314;2023-04-07T07:59:10;94244.84;;;22.91;42.64
31337;BME280;22846;42.654;23.314;2023-04-07T08:01:35;94258.50;;;23.03;42.91
31337;BME280;22846;42.654;23.314;2023-04-07T08:04:00;94243.34;;;23.02;42.79
31337;BME280;22846;42.654;23.314;2023-04-07T08:06:26;94252.41;;;23.11;42.76
31337;BME280;22846;42.654;23.314;2023-04-07T08:08:55;94261.44;;;23.21;42.73
31337;BME280;22846;42.654;23.314;2023-04-07T08:11:21;94266.88;;;23.21;43.34
31337;BME280;22846;42.654;23.314;2023-04-07T08:13:47;94267.53;;;23.25;43.24
31337;BME280;22846;42.654;23.314;2023-04-07T08:16:12;94255.22;;;23.20;43.20
31337;BME280;22846;42.654;23.314;2023-04-07T08:18:38;94258.41;;;23.19;43.11
31337;BME280;22846;42.654;23.314;2023-04-07T08:21:04;94264.25;;;23.30;43.36
31337;BME280;22846;42.654;23.314;2023-04-07T08:23:30;94263.16;;;23.27;43.33
31337;BME280;22846;42.654;23.314;2023-04-07T08:25:55;94257.38;;;23.25;43.88
31337;BME280;22846;42.654;23.314;2023-04-07T08:28:21;94262.31;;;23.30;44.07
31337;BME280;22846;42.654;23.314;2023-04-07T08:30:47;94270.03;;;23.32;44.28
31337;BME280;22846;42.654;23.314;2023-04-07T08:33:12;94273.09;;;23.34;43.94
31337;BME280;22846;42.654;23.314;2023-04-07T08:35:38;94270.69;;;23.36;44.52
31337;BME280;22846;42.654;23.314;2023-04-07T08:38:03;94255.56;;;23.22;44.48
31337;BME280;22846;42.654;23.314;2023-04-07T08:40:31;94266.00;;;23.36;44.59
31337;BME280;22846;42.654;23.314;2023-04-07T08:42:59;94261.41;;;23.33;44.47
31337;BME280;22846;42.654;23.314;2023-04-07T08:45:25;94271.91;;;23.35;44.80
31337;BME280;22846;42.654;23.314;2023-04-07T08:47:54;94252.59;;;23.29;44.73
31337;BME280;22846;42.654;23.314;2023-04-07T08:50:21;94265.53;;;23.38;44.79
31337;BME280;22846;42.654;23.314;2023-04-07T08:52:53;94258.38;;;23.31;44.88
31337;BME280;22846;42.654;23.314;2023-04-07T08:55:19;94263.25;;;23.36;45.21
31337;BME280;22846;42.654;23.314;2023-04-07T08:57:45;94257.94;;;23.33;44.68
31337;BME280;22846;42.654;23.314;2023-04-07T09:00:11;94266.13;;;23.33;44.61
31337;BME280;22846;42.654;23.314;2023-04-07T09:02:39;94264.47;;;23.35;45.14
31337;BME280;22846;42.654;23.314;2023-04-07T09:05:07;94266.31;;;23.38;45.06
31337;BME280;22846;42.654;23.314;2023-04-07T09:07:34;94262.41;;;23.39;45.32
31337;BME280;22846;42.654;23.314;2023-04-07T09:10:00;94267.84;;;23.39;45.03
31337;BME280;22846;42.654;23.314;2023-04-07T09:12:27;94262.81;;;23.38;45.52
31337;BME280;22846;42.654;23.314;2023-04-07T09:14:53;94252.81;;;23.35;44.67
31337;BME280;22846;42.654;23.314;2023-04-07T09:17:19;94248.88;;;23.36;45.15
31337;BME280;22846;42.654;23.314;2023-04-07T09:19:46;94260.75;;;23.42;45.51
31337;BME280;22846;42.654;23.314;2023-04-07T09:22:11;94258.88;;;23.39;45.76
31337;BME280;22846;42.654;23.314;2023-04-07T09:24:38;94258.16;;;23.38;45.79
31337;BME280;22846;42.654;23.314;2023-04-07T09:27:40;94268.94;;;23.42;45.14
31337;BME280;22846;42.654;23.314;2023-04-07T09:30:10;94239.84;;;23.26;45.39
31337;BME280;22846;42.654;23.314;2023-04-07T09:32:36;94244.09;;;23.27;45.24
31337;BME280;22846;42.654;23.314;2023-04-07T09:35:03;94265.47;;;23.41;45.21
31337;BME280;22846;42.654;23.314;2023-04-07T09:37:28;94267.06;;;23.39;46.17
31337;BME280;22846;42.654;23.314;2023-04-07T09:39:53;94273.72;;;23.38;47.19
31337;BME280;22846;42.654;23.314;2023-04-07T09:42:19;94271.47;;;23.24;47.06
31337;BME280;22846;42.654;23.314;2023-04-07T09:44:45;94273.44;;;23.36;47.29
31337;BME280;22846;42.654;23.314;2023-04-07T09:47:11;94281.81;;;23.41;50.23
31337;BME280;22846;42.654;23.314;2023-04-07T09:49:50;94274.38;;;23.42;50.92
31337;BME280;22846;42.654;23.314;2023-04-07T09:52:23;94253.69;;;23.32;48.88
31337;BME280;22846;42.654;23.314;2023-04-07T09:54:49;94277.88;;;23.42;52.12
31337;BME280;22846;42.654;23.314;2023-04-07T09:57:16;94279.41;;;23.43;53.24
31337;BME280;22846;42.654;23.314;2023-04-07T09:59:43;94280.16;;;23.44;48.92
31337;BME280;22846;42.654;23.314;2023-04-07T10:02:10;94286.50;;;23.41;46.70
31337;BME280;22846;42.654;23.314;2023-04-07T10:04:36;94275.22;;;22.52;30.58
31337;BME280;22846;42.654;23.314;2023-04-07T10:07:01;94283.31;;;22.27;38.07
31337;BME280;22846;42.654;23.314;2023-04-07T10:09:28;94277.59;;;22.09;42.68
31337;BME280;22846;42.654;23.314;2023-04-07T10:11:56;94279.88;;;22.11;44.81
31337;BME280;22846;42.654;23.314;2023-04-07T10:14:25;94285.88;;;22.18;46.15
31337;BME280;22846;42.654;23.314;2023-04-07T10:16:51;94266.06;;;22.18;46.86
31337;BME280;22846;42.654;23.314;2023-04-07T10:19:18;94274.75;;;22.41;47.12
31337;BME280;22846;42.654;23.314;2023-04-07T10:21:44;94285.69;;;22.53;46.69
31337;BME280;22846;42.654;23.314;2023-04-07T10:26:55;94280.81;;;22.73;46.80
31337;BME280;22846;42.654;23.314;2023-04-07T10:29:22;94279.06;;;22.79;46.93
31337;BME280;22846;42.654;23.314;2023-04-07T10:31:49;94261.31;;;22.75;46.93
31337;BME280;22846;42.654;23.314;2023-04-07T10:34:14;94270.38;;;22.84;46.63
31337;BME280;22846;42.654;23.314;2023-04-07T10:37:10;94287.34;;;23.01;46.85
31337;BME280;22846;42.654;23.314;2023-04-07T10:39:37;94288.38;;;23.07;47.62
31337;BME280;22846;42.654;23.314;2023-04-07T10:42:03;94291.00;;;23.10;46.85
31337;BME280;22846;42.654;23.314;2023-04-07T10:47:04;94278.91;;;23.11;46.60
31337;BME280;22846;42.654;23.314;2023-04-07T10:49:34;94278.91;;;23.11;47.93
31337;BME280;22846;42.654;23.314;2023-04-07T10:54:37;94288.38;;;23.19;48.18
31337;BME280;22846;42.654;23.314;2023-04-07T10:59:32;94287.59;;;23.18;49.13
31337;BME280;22846;42.654;23.314;2023-04-07T11:04:40;94304.19;;;23.24;48.32
31337;BME280;22846;42.654;23.314;2023-04-07T11:07:07;94310.72;;;23.26;48.71
31337;BME280;22846;42.654;23.314;2023-04-07T11:09:33;94304.19;;;23.24;48.54
31337;BME280;22846;42.654;23.314;2023-04-07T11:11:58;94286.19;;;23.14;49.29
31337;BME280;22846;42.654;23.314;2023-04-07T11:14:31;94304.97;;;23.24;48.39
31337;BME280;22846;42.654;23.314;2023-04-07T11:16:57;94297.53;;;23.25;49.15
31337;BME280;22846;42.654;23.314;2023-04-07T11:19:23;94300.59;;;23.27;47.96
31337;BME280;22846;42.654;23.314;2023-04-07T11:21:49;94298.94;;;23.29;48.95
31337;BME280;22846;42.654;23.314;2023-04-07T11:24:34;94308.66;;;23.30;48.91
31337;BME280;22846;42.654;23.314;2023-04-07T11:27:03;94310.47;;;23.33;49.92
31337;BME280;22846;42.654;23.314;2023-04-07T11:29:32;94316.84;;;23.30;49.50
31337;BME280;22846;42.654;23.314;2023-04-07T11:32:00;94302.88;;;23.28;49.50
31337;BME280;22846;42.654;23.314;2023-04-07T11:34:35;94309.72;;;23.33;49.19
31337;BME280;22846;42.654;23.314;2023-04-07T11:39:55;94315.53;;;23.35;49.48
31337;BME280;22846;42.654;23.314;2023-04-07T11:42:35;94320.97;;;23.35;49.74
31337;BME280;22846;42.654;23.314;2023-04-07T11:45:01;94331.00;;;23.38;50.20
31337;BME280;22846;42.654;23.314;2023-04-07T11:47:37;94319.44;;;23.34;48.96
31337;BME280;22846;42.654;23.314;2023-04-07T11:50:03;94320.53;;;23.36;49.49
31337;BME280;22846;42.654;23.314;2023-04-07T11:52:46;94320.97;;;23.35;49.53
31337;BME280;22846;42.654;23.314;2023-04-07T11:55:21;94309.19;;;23.38;47.77
31337;BME280;22846;42.654;23.314;2023-04-07T11:57:49;94302.00;;;23.44;51.78
31337;BME280;22846;42.654;23.314;2023-04-07T12:00:18;94308.84;;;23.48;50.74
31337;BME280;22846;42.654;23.314;2023-04-07T12:02:44;94304.94;;;23.49;49.53
31337;BME280;22846;42.654;23.314;2023-04-07T12:05:10;94307.22;;;23.51;49.04
31337;BME280;22846;42.654;23.314;2023-04-07T12:07:36;94275.59;;;23.28;51.14
31337;BME280;22846;42.654;23.314;2023-04-07T12:12:45;94311.34;;;23.55;48.81
31337;BME280;22846;42.654;23.314;2023-04-07T12:15:10;94307.31;;;23.60;48.23
31337;BME280;22846;42.654;23.314;2023-04-07T12:17:36;94304.47;;;23.63;47.98
31337;BME280;22846;42.654;23.314;2023-04-07T12:20:01;94309.25;;;23.72;47.97
31337;BME280;22846;42.654;23.314;2023-04-07T12:22:26;94314.50;;;23.79;47.78
31337;BME280;22846;42.654;23.314;2023-04-07T12:24:52;94309.56;;;23.86;47.68
31337;BME280;22846;42.654;23.314;2023-04-07T12:27:17;94308.22;;;23.91;48.79
31337;BME280;22846;42.654;23.314;2023-04-07T12:29:43;94309.50;;;23.98;47.94
31337;BME280;22846;42.654;23.314;2023-04-07T12:32:08;94310.03;;;24.06;48.12
31337;BME280;22846;42.654;23.314;2023-04-07T12:34:34;94287.38;;;23.96;48.63
31337;BME280;22846;42.654;23.314;2023-04-07T12:37:01;94296.28;;;24.09;47.82
31337;BME280;22846;42.654;23.314;2023-04-07T12:39:27;94309.03;;;24.12;48.18
31337;BME280;22846;42.654;23.314;2023-04-07T12:41:52;94308.78;;;24.19;48.18
31337;BME280;22846;42.654;23.314;2023-04-07T12:44:18;94313.81;;;24.21;47.71
31337;BME280;22846;42.654;23.314;2023-04-07T12:46:44;94307.00;;;24.25;48.36
31337;BME280;22846;42.654;23.314;2023-04-07T12:49:09;94313.56;;;24.28;49.05
31337;BME280;22846;42.654;23.314;2023-04-07T12:51:35;94312.34;;;24.29;49.09
31337;BME280;22846;42.654;23.314;2023-04-07T12:54:01;94311.59;;;24.28;49.25
31337;BME280;22846;42.654;23.314;2023-04-07T12:56:27;94309.00;;;24.25;50.13
31337;BME280;22846;42.654;23.314;2023-04-07T12:58:53;94307.13;;;24.22;49.91
31337;BME280;22846;42.654;23.314;2023-04-07T13:01:19;94313.38;;;24.22;50.21
31337;BME280;22846;42.654;23.314;2023-04-07T13:03:45;94300.06;;;24.12;49.59
31337;BME280;22846;42.654;23.314;2023-04-07T13:06:11;94321.75;;;24.28;48.89
31337;BME280;22846;42.654;23.314;2023-04-07T13:08:37;94311.72;;;24.25;49.35
31337;BME280;22846;42.654;23.314;2023-04-07T13:11:02;94314.13;;;24.23;46.68
31337;BME280;22846;42.654;23.314;2023-04-07T13:13:30;94305.06;;;24.26;47.85